This is the latest recevied weather packets stored in our database for station/object EA1FWM-13. If no packets are shown the sender has not sent any weather packets the latest 10 day(s).
| Time | Temp. | Humidity | Pressure | Rain* | Wind** | Luminosity | Snow |
|---|---|---|---|---|---|---|---|
| 1777556333 | 20° C | 68% | 1019.7 hPa | - | - | - | - |
| 1777555431 | 20.56° C | 67% | 1019.8 hPa | - | - | - | - |
| 1777554530 | 22.22° C | 61% | 1019.8 hPa | - | - | - | - |
| 1777553630 | 20° C | 72% | 1019.8 hPa | - | - | - | - |
| 1777552729 | 18.89° C | 73% | 1019.8 hPa | - | - | - | - |
| 1777551828 | 16.11° C | 83% | 1019.8 hPa | - | - | - | - |
| 1777550927 | 15.56° C | 86% | 1019.8 hPa | - | - | - | - |
| 1777550026 | 16.11° C | 85% | 1019.7 hPa | - | - | - | - |
| 1777549125 | 16.11° C | 85% | 1019.7 hPa | - | - | - | - |
| 1777548224 | 16.67° C | 84% | 1019.8 hPa | - | - | - | - |
| 1777547324 | 17.78° C | 79% | 1019.7 hPa | - | - | - | - |
| 1777546423 | 16.67° C | 84% | 1019.7 hPa | - | - | - | - |
| 1777545522 | 15° C | 89% | 1019.8 hPa | - | - | - | - |
| 1777544621 | 15° C | 87% | 1019.6 hPa | - | - | - | - |
| 1777543720 | 15.56° C | 87% | 1019.5 hPa | - | - | - | - |
| 1777542819 | 15.56° C | 91% | 1019.4 hPa | - | - | - | - |
| 1777541918 | 15° C | 91% | 1019.1 hPa | - | - | - | - |
| 1777541018 | 16.11° C | 91% | 1019.1 hPa | - | - | - | - |
| 1777540117 | 14.44° C | 93% | 1018.9 hPa | - | - | - | - |
| 1777539216 | 13.89° C | 94% | 1018.8 hPa | - | - | - | - |
| 1777538315 | 13.89° C | 94% | 1018.7 hPa | - | - | - | - |
| 1777537413 | 13.89° C | 94% | 1018.5 hPa | - | - | - | - |
| 1777536512 | 13.89° C | 95% | 1018.3 hPa | - | - | - | - |
| 1777535611 | 13.33° C | 95% | 1018.2 hPa | - | - | - | - |
| 1777534710 | 13.33° C | 95% | 1018.1 hPa | - | - | - | - |
* Rain since midnight (hover to see other rain measurements)
** Current wind speed in m/s (hover to see current wind gust speed)